sensor_id;sensor_type;location;lat;lon;timestamp;pressure;altitude;pressure_sealevel;temperature;humidity
79118;BME280;68523;51.336;-0.846;2023-08-06T00:00:00;100315.0;;;12.01;92.3
79118;BME280;68523;51.336;-0.846;2023-08-06T00:03:00;100325.0;;;11.96;92.2
79118;BME280;68523;51.336;-0.846;2023-08-06T00:06:00;100325.0;;;12.00;91.5
79118;BME280;68523;51.336;-0.846;2023-08-06T00:09:00;100335.0;;;11.96;91.8
79118;BME280;68523;51.336;-0.846;2023-08-06T00:12:00;100345.0;;;11.98;91.3
79118;BME280;68523;51.336;-0.846;2023-08-06T00:15:01;100345.0;;;11.99;91.1
79118;BME280;68523;51.336;-0.846;2023-08-06T00:18:00;100355.0;;;11.99;91.0
79118;BME280;68523;51.336;-0.846;2023-08-06T00:21:00;100355.0;;;11.98;91.1
79118;BME280;68523;51.336;-0.846;2023-08-06T00:24:00;100355.0;;;12.00;91.0
79118;BME280;68523;51.336;-0.846;2023-08-06T00:27:00;100365.0;;;12.01;91.3
79118;BME280;68523;51.336;-0.846;2023-08-06T00:30:00;100365.0;;;12.05;91.1
79118;BME280;68523;51.336;-0.846;2023-08-06T00:33:00;100375.0;;;12.03;91.2
79118;BME280;68523;51.336;-0.846;2023-08-06T00:36:00;100375.0;;;12.04;91.3
79118;BME280;68523;51.336;-0.846;2023-08-06T00:39:00;100375.0;;;12.04;91.8
79118;BME280;68523;51.336;-0.846;2023-08-06T00:42:00;100385.0;;;12.02;91.5
79118;BME280;68523;51.336;-0.846;2023-08-06T00:45:00;100385.0;;;11.98;92.0
79118;BME280;68523;51.336;-0.846;2023-08-06T00:48:00;100385.0;;;11.96;92.0
79118;BME280;68523;51.336;-0.846;2023-08-06T00:51:01;100395.0;;;11.94;92.0
79118;BME280;68523;51.336;-0.846;2023-08-06T00:54:01;100395.0;;;11.94;91.9
79118;BME280;68523;51.336;-0.846;2023-08-06T00:57:01;100405.0;;;11.88;92.5
79118;BME280;68523;51.336;-0.846;2023-08-06T01:00:00;100405.0;;;11.80;92.6
79118;BME280;68523;51.336;-0.846;2023-08-06T01:03:00;100405.0;;;11.75;92.6
79118;BME280;68523;51.336;-0.846;2023-08-06T01:06:00;100415.0;;;11.78;92.5
79118;BME280;68523;51.336;-0.846;2023-08-06T01:09:06;100415.0;;;11.76;92.8
79118;BME280;68523;51.336;-0.846;2023-08-06T01:12:06;100415.0;;;11.72;93.1
79118;BME280;68523;51.336;-0.846;2023-08-06T01:15:04;100425.0;;;11.78;93.1
79118;BME280;68523;51.336;-0.846;2023-08-06T01:18:00;100425.0;;;11.68;93.5
79118;BME280;68523;51.336;-0.846;2023-08-06T01:21:00;100425.0;;;11.57;93.4
79118;BME280;68523;51.336;-0.846;2023-08-06T01:24:00;100435.0;;;11.52;93.6
79118;BME280;68523;51.336;-0.846;2023-08-06T01:27:04;100425.0;;;11.49;93.7
79118;BME280;68523;51.336;-0.846;2023-08-06T01:30:03;100425.0;;;11.41;93.8
79118;BME280;68523;51.336;-0.846;2023-08-06T01:33:03;100435.0;;;11.37;94.1
79118;BME280;68523;51.336;-0.846;2023-08-06T01:36:01;100435.0;;;11.42;93.9
79118;BME280;68523;51.336;-0.846;2023-08-06T01:39:00;100435.0;;;11.38;93.9
79118;BME280;68523;51.336;-0.846;2023-08-06T01:42:00;100435.0;;;11.26;94.3
79118;BME280;68523;51.336;-0.846;2023-08-06T01:45:01;100445.0;;;11.25;94.3
79118;BME280;68523;51.336;-0.846;2023-08-06T01:48:00;100455.0;;;11.21;94.4
79118;BME280;68523;51.336;-0.846;2023-08-06T01:51:00;100455.0;;;11.18;94.6
79118;BME280;68523;51.336;-0.846;2023-08-06T01:54:00;100455.0;;;11.11;94.6
79118;BME280;68523;51.336;-0.846;2023-08-06T01:57:00;100465.0;;;11.07;94.8
79118;BME280;68523;51.336;-0.846;2023-08-06T02:00:00;100465.0;;;11.04;95.0
79118;BME280;68523;51.336;-0.846;2023-08-06T02:03:00;100475.0;;;10.97;95.2
79118;BME280;68523;51.336;-0.846;2023-08-06T02:06:00;100475.0;;;10.91;95.5
79118;BME280;68523;51.336;-0.846;2023-08-06T02:09:00;100475.0;;;10.88;95.6
79118;BME280;68523;51.336;-0.846;2023-08-06T02:12:00;100475.0;;;10.86;95.6
79118;BME280;68523;51.336;-0.846;2023-08-06T02:15:00;100475.0;;;10.81;95.8
79118;BME280;68523;51.336;-0.846;2023-08-06T02:18:00;100475.0;;;10.74;95.8
79118;BME280;68523;51.336;-0.846;2023-08-06T02:21:00;100485.0;;;10.68;96.0
79118;BME280;68523;51.336;-0.846;2023-08-06T02:24:00;100485.0;;;10.65;96.1
79118;BME280;68523;51.336;-0.846;2023-08-06T02:27:00;100485.0;;;10.62;96.1
79118;BME280;68523;51.336;-0.846;2023-08-06T02:30:00;100485.0;;;10.59;96.3
79118;BME280;68523;51.336;-0.846;2023-08-06T02:33:00;100485.0;;;10.54;96.3
79118;BME280;68523;51.336;-0.846;2023-08-06T02:36:00;100485.0;;;10.47;96.4
79118;BME280;68523;51.336;-0.846;2023-08-06T02:39:00;100485.0;;;10.42;96.5
79118;BME280;68523;51.336;-0.846;2023-08-06T02:42:00;100485.0;;;10.43;96.4
79118;BME280;68523;51.336;-0.846;2023-08-06T02:45:00;100495.0;;;10.44;96.3
79118;BME280;68523;51.336;-0.846;2023-08-06T02:48:00;100495.0;;;10.39;96.2
79118;BME280;68523;51.336;-0.846;2023-08-06T02:51:00;100495.0;;;10.39;96.2
79118;BME280;68523;51.336;-0.846;2023-08-06T02:54:00;100495.0;;;10.41;96.1
79118;BME280;68523;51.336;-0.846;2023-08-06T02:57:00;100495.0;;;10.40;95.9
79118;BME280;68523;51.336;-0.846;2023-08-06T03:00:00;100495.0;;;10.37;95.9
79118;BME280;68523;51.336;-0.846;2023-08-06T03:03:00;100495.0;;;10.40;95.7
79118;BME280;68523;51.336;-0.846;2023-08-06T03:06:00;100495.0;;;10.39;95.3
79118;BME280;68523;51.336;-0.846;2023-08-06T03:09:00;100495.0;;;10.30;95.7
79118;BME280;68523;51.336;-0.846;2023-08-06T03:12:00;100495.0;;;10.31;95.6
79118;BME280;68523;51.336;-0.846;2023-08-06T03:15:00;100505.0;;;10.28;95.4
79118;BME280;68523;51.336;-0.846;2023-08-06T03:18:00;100505.0;;;10.26;95.4
79118;BME280;68523;51.336;-0.846;2023-08-06T03:21:00;100505.0;;;10.27;95.4
79118;BME280;68523;51.336;-0.846;2023-08-06T03:24:00;100495.0;;;10.19;95.4
79118;BME280;68523;51.336;-0.846;2023-08-06T03:27:00;100505.0;;;10.16;95.6
79118;BME280;68523;51.336;-0.846;2023-08-06T03:30:00;100505.0;;;10.18;95.3
79118;BME280;68523;51.336;-0.846;2023-08-06T03:33:00;100505.0;;;10.16;95.4
79118;BME280;68523;51.336;-0.846;2023-08-06T03:36:00;100515.0;;;10.11;95.5
79118;BME280;68523;51.336;-0.846;2023-08-06T03:39:00;100515.0;;;10.09;95.5
79118;BME280;68523;51.336;-0.846;2023-08-06T03:42:00;100515.0;;;10.12;95.2
79118;BME280;68523;51.336;-0.846;2023-08-06T03:45:00;100525.0;;;10.07;95.2
79118;BME280;68523;51.336;-0.846;2023-08-06T03:48:00;100525.0;;;10.05;95.2
79118;BME280;68523;51.336;-0.846;2023-08-06T03:51:00;100525.0;;;10.08;95.1
79118;BME280;68523;51.336;-0.846;2023-08-06T03:54:00;100525.0;;;10.10;94.8
79118;BME280;68523;51.336;-0.846;2023-08-06T03:57:00;100525.0;;;10.16;94.7
79118;BME280;68523;51.336;-0.846;2023-08-06T04:00:00;100525.0;;;10.13;94.6
79118;BME280;68523;51.336;-0.846;2023-08-06T04:03:00;100525.0;;;10.09;94.7
79118;BME280;68523;51.336;-0.846;2023-08-06T04:06:02;100525.0;;;10.07;94.6
79118;BME280;68523;51.336;-0.846;2023-08-06T04:09:00;100525.0;;;10.03;94.9
79118;BME280;68523;51.336;-0.846;2023-08-06T04:12:00;100525.0;;;9.99;95.0
79118;BME280;68523;51.336;-0.846;2023-08-06T04:15:00;100535.0;;;9.92;95.1
79118;BME280;68523;51.336;-0.846;2023-08-06T04:18:00;100535.0;;;9.89;95.1
79118;BME280;68523;51.336;-0.846;2023-08-06T04:21:01;100535.0;;;9.86;95.2
79118;BME280;68523;51.336;-0.846;2023-08-06T04:24:00;100545.0;;;9.84;95.2
79118;BME280;68523;51.336;-0.846;2023-08-06T04:27:00;100545.0;;;9.81;95.4
79118;BME280;68523;51.336;-0.846;2023-08-06T04:30:00;100545.0;;;9.76;95.4
79118;BME280;68523;51.336;-0.846;2023-08-06T04:33:00;100545.0;;;9.77;95.6
79118;BME280;68523;51.336;-0.846;2023-08-06T04:36:00;100545.0;;;9.72;95.6
79118;BME280;68523;51.336;-0.846;2023-08-06T04:39:00;100555.0;;;9.71;95.7
79118;BME280;68523;51.336;-0.846;2023-08-06T04:42:00;100555.0;;;9.67;95.8
79118;BME280;68523;51.336;-0.846;2023-08-06T04:45:01;100555.0;;;9.66;95.9
79118;BME280;68523;51.336;-0.846;2023-08-06T04:48:00;100555.0;;;9.62;95.9
79118;BME280;68523;51.336;-0.846;2023-08-06T04:51:00;100565.0;;;9.62;96.0
79118;BME280;68523;51.336;-0.846;2023-08-06T04:54:00;100565.0;;;9.63;96.0
79118;BME280;68523;51.336;-0.846;2023-08-06T04:57:00;100565.0;;;9.64;96.0
79118;BME280;68523;51.336;-0.846;2023-08-06T05:00:00;100565.0;;;9.63;96.1
79118;BME280;68523;51.336;-0.846;2023-08-06T05:03:00;100575.0;;;9.66;96.2
79118;BME280;68523;51.336;-0.846;2023-08-06T05:06:00;100575.0;;;9.70;96.0
79118;BME280;68523;51.336;-0.846;2023-08-06T05:09:00;100575.0;;;9.68;96.1
79118;BME280;68523;51.336;-0.846;2023-08-06T05:12:00;100575.0;;;9.74;96.1
79118;BME280;68523;51.336;-0.846;2023-08-06T05:15:00;100575.0;;;9.74;96.0
79118;BME280;68523;51.336;-0.846;2023-08-06T05:18:00;100575.0;;;9.78;95.8
79118;BME280;68523;51.336;-0.846;2023-08-06T05:21:00;100575.0;;;9.80;95.8
79118;BME280;68523;51.336;-0.846;2023-08-06T05:24:00;100585.0;;;9.85;95.7
79118;BME280;68523;51.336;-0.846;2023-08-06T05:27:00;100585.0;;;9.94;95.5
79118;BME280;68523;51.336;-0.846;2023-08-06T05:30:00;100595.0;;;10.05;95.2
79118;BME280;68523;51.336;-0.846;2023-08-06T05:33:00;100595.0;;;10.18;94.9
79118;BME280;68523;51.336;-0.846;2023-08-06T05:36:00;100595.0;;;10.41;94.3
79118;BME280;68523;51.336;-0.846;2023-08-06T05:39:00;100595.0;;;11.31;91.3
79118;BME280;68523;51.336;-0.846;2023-08-06T05:42:00;100595.0;;;11.55;90.5
79118;BME280;68523;51.336;-0.846;2023-08-06T05:45:00;100595.0;;;11.84;89.5
79118;BME280;68523;51.336;-0.846;2023-08-06T05:48:00;100595.0;;;12.29;88.1
79118;BME280;68523;51.336;-0.846;2023-08-06T05:51:00;100595.0;;;12.42;87.7
79118;BME280;68523;51.336;-0.846;2023-08-06T05:54:00;100605.0;;;12.55;87.3
79118;BME280;68523;51.336;-0.846;2023-08-06T05:57:00;100605.0;;;12.74;86.6
79118;BME280;68523;51.336;-0.846;2023-08-06T06:00:00;100605.0;;;12.70;87.1
79118;BME280;68523;51.336;-0.846;2023-08-06T06:03:01;100605.0;;;12.81;86.8
79118;BME280;68523;51.336;-0.846;2023-08-06T06:06:01;100615.0;;;12.85;86.9
79118;BME280;68523;51.336;-0.846;2023-08-06T06:09:00;100625.0;;;12.93;86.1
79118;BME280;68523;51.336;-0.846;2023-08-06T06:12:00;100635.0;;;13.03;86.2
79118;BME280;68523;51.336;-0.846;2023-08-06T06:15:00;100635.0;;;13.23;85.5
79118;BME280;68523;51.336;-0.846;2023-08-06T06:18:00;100635.0;;;13.20;86.1
79118;BME280;68523;51.336;-0.846;2023-08-06T06:21:00;100635.0;;;13.23;85.8
79118;BME280;68523;51.336;-0.846;2023-08-06T06:24:00;100635.0;;;12.51;88.3
79118;BME280;68523;51.336;-0.846;2023-08-06T06:27:00;100635.0;;;12.21;90.0
79118;BME280;68523;51.336;-0.846;2023-08-06T06:30:00;100645.0;;;12.25;90.0
79118;BME280;68523;51.336;-0.846;2023-08-06T06:33:00;100645.0;;;12.28;90.0
79118;BME280;68523;51.336;-0.846;2023-08-06T06:36:00;100645.0;;;12.48;89.9
79118;BME280;68523;51.336;-0.846;2023-08-06T06:39:00;100645.0;;;12.51;89.8
79118;BME280;68523;51.336;-0.846;2023-08-06T06:42:00;100645.0;;;12.59;89.3
79118;BME280;68523;51.336;-0.846;2023-08-06T06:45:00;100645.0;;;12.75;89.0
79118;BME280;68523;51.336;-0.846;2023-08-06T06:48:00;100645.0;;;13.01;89.1
79118;BME280;68523;51.336;-0.846;2023-08-06T06:51:00;100655.0;;;13.04;88.7
79118;BME280;68523;51.336;-0.846;2023-08-06T06:54:00;100655.0;;;13.05;88.1
79118;BME280;68523;51.336;-0.846;2023-08-06T06:57:00;100655.0;;;13.18;87.7
79118;BME280;68523;51.336;-0.846;2023-08-06T07:00:00;100665.0;;;13.50;87.6
79118;BME280;68523;51.336;-0.846;2023-08-06T07:03:00;100665.0;;;13.38;86.9
79118;BME280;68523;51.336;-0.846;2023-08-06T07:06:00;100665.0;;;13.63;87.3
79118;BME280;68523;51.336;-0.846;2023-08-06T07:09:00;100665.0;;;13.73;86.9
79118;BME280;68523;51.336;-0.846;2023-08-06T07:12:00;100675.0;;;14.00;86.1
79118;BME280;68523;51.336;-0.846;2023-08-06T07:15:00;100675.0;;;14.91;82.7
79118;BME280;68523;51.336;-0.846;2023-08-06T07:18:00;100685.0;;;14.63;83.1
79118;BME280;68523;51.336;-0.846;2023-08-06T07:21:00;100685.0;;;14.27;83.0
79118;BME280;68523;51.336;-0.846;2023-08-06T07:24:00;100695.0;;;14.29;84.1
79118;BME280;68523;51.336;-0.846;2023-08-06T07:27:00;100695.0;;;14.02;85.4
79118;BME280;68523;51.336;-0.846;2023-08-06T07:30:00;100695.0;;;14.09;84.4
79118;BME280;68523;51.336;-0.846;2023-08-06T07:33:00;100705.0;;;13.86;85.3
79118;BME280;68523;51.336;-0.846;2023-08-06T07:36:07;100695.0;;;14.09;83.5
79118;BME280;68523;51.336;-0.846;2023-08-06T07:39:00;100705.0;;;14.00;84.5
79118;BME280;68523;51.336;-0.846;2023-08-06T07:42:00;100705.0;;;14.15;84.1
79118;BME280;68523;51.336;-0.846;2023-08-06T07:45:02;100705.0;;;14.28;83.9
79118;BME280;68523;51.336;-0.846;2023-08-06T07:48:00;100705.0;;;14.43;84.0
79118;BME280;68523;51.336;-0.846;2023-08-06T07:51:00;100705.0;;;14.25;83.8
79118;BME280;68523;51.336;-0.846;2023-08-06T07:54:00;100715.0;;;14.27;83.8
79118;BME280;68523;51.336;-0.846;2023-08-06T07:57:00;100715.0;;;14.28;83.6
79118;BME280;68523;51.336;-0.846;2023-08-06T08:00:00;100715.0;;;14.20;83.8
79118;BME280;68523;51.336;-0.846;2023-08-06T08:03:00;100725.0;;;13.95;82.9
79118;BME280;68523;51.336;-0.846;2023-08-06T08:06:00;100715.0;;;14.22;83.5
79118;BME280;68523;51.336;-0.846;2023-08-06T08:09:00;100715.0;;;14.11;83.6
79118;BME280;68523;51.336;-0.846;2023-08-06T08:12:00;100715.0;;;14.06;83.4
79118;BME280;68523;51.336;-0.846;2023-08-06T08:15:00;100725.0;;;13.92;83.7
79118;BME280;68523;51.336;-0.846;2023-08-06T08:18:00;100725.0;;;13.98;83.2
79118;BME280;68523;51.336;-0.846;2023-08-06T08:21:01;100725.0;;;14.22;82.3
79118;BME280;68523;51.336;-0.846;2023-08-06T08:24:00;100725.0;;;14.64;81.1
79118;BME280;68523;51.336;-0.846;2023-08-06T08:27:00;100725.0;;;14.87;80.6
79118;BME280;68523;51.336;-0.846;2023-08-06T08:30:00;100725.0;;;14.61;81.2
79118;BME280;68523;51.336;-0.846;2023-08-06T08:33:00;100725.0;;;14.61;81.4
79118;BME280;68523;51.336;-0.846;2023-08-06T08:36:00;100725.0;;;14.65;81.6
79118;BME280;68523;51.336;-0.846;2023-08-06T08:39:00;100725.0;;;14.97;81.8
79118;BME280;68523;51.336;-0.846;2023-08-06T08:42:01;100725.0;;;15.17;81.3
79118;BME280;68523;51.336;-0.846;2023-08-06T08:45:00;100735.0;;;14.93;79.6
79118;BME280;68523;51.336;-0.846;2023-08-06T08:48:00;100735.0;;;14.87;80.5
79118;BME280;68523;51.336;-0.846;2023-08-06T08:51:00;100735.0;;;15.11;79.4
79118;BME280;68523;51.336;-0.846;2023-08-06T08:54:02;100735.0;;;15.81;77.7
79118;BME280;68523;51.336;-0.846;2023-08-06T08:57:00;100735.0;;;15.40;78.2
79118;BME280;68523;51.336;-0.846;2023-08-06T09:00:00;100735.0;;;15.75;77.5
79118;BME280;68523;51.336;-0.846;2023-08-06T09:03:00;100735.0;;;15.81;76.0
79118;BME280;68523;51.336;-0.846;2023-08-06T09:06:02;100735.0;;;16.72;73.2
79118;BME280;68523;51.336;-0.846;2023-08-06T09:09:02;100735.0;;;15.92;74.4
79118;BME280;68523;51.336;-0.846;2023-08-06T09:12:01;100735.0;;;16.25;74.7
79118;BME280;68523;51.336;-0.846;2023-08-06T09:15:00;100735.0;;;16.29;73.5
79118;BME280;68523;51.336;-0.846;2023-08-06T09:18:09;100735.0;;;16.07;75.0
79118;BME280;68523;51.336;-0.846;2023-08-06T09:21:00;100735.0;;;15.94;75.6
79118;BME280;68523;51.336;-0.846;2023-08-06T09:24:00;100745.0;;;16.15;75.7
79118;BME280;68523;51.336;-0.846;2023-08-06T09:27:02;100745.0;;;15.64;76.4
79118;BME280;68523;51.336;-0.846;2023-08-06T09:30:00;100745.0;;;15.64;76.4
79118;BME280;68523;51.336;-0.846;2023-08-06T09:33:00;100755.0;;;15.65;75.9
79118;BME280;68523;51.336;-0.846;2023-08-06T09:36:07;100745.0;;;15.85;74.8
79118;BME280;68523;51.336;-0.846;2023-08-06T09:39:00;100755.0;;;15.98;74.6
79118;BME280;68523;51.336;-0.846;2023-08-06T09:42:01;100755.0;;;16.47;71.7
79118;BME280;68523;51.336;-0.846;2023-08-06T09:45:05;100755.0;;;17.32;70.8
79118;BME280;68523;51.336;-0.846;2023-08-06T09:48:02;100755.0;;;17.69;69.8
79118;BME280;68523;51.336;-0.846;2023-08-06T09:51:01;100765.0;;;16.59;71.6
79118;BME280;68523;51.336;-0.846;2023-08-06T09:54:00;100765.0;;;16.79;71.6
79118;BME280;68523;51.336;-0.846;2023-08-06T09:57:00;100765.0;;;17.02;71.5
79118;BME280;68523;51.336;-0.846;2023-08-06T10:00:00;100765.0;;;16.92;70.8
79118;BME280;68523;51.336;-0.846;2023-08-06T10:03:00;100765.0;;;17.86;67.3
79118;BME280;68523;51.336;-0.846;2023-08-06T10:06:00;100765.0;;;18.07;68.8
79118;BME280;68523;51.336;-0.846;2023-08-06T10:09:00;100765.0;;;17.39;70.6
79118;BME280;68523;51.336;-0.846;2023-08-06T10:12:00;100775.0;;;16.49;73.0
79118;BME280;68523;51.336;-0.846;2023-08-06T10:15:03;100765.0;;;17.49;70.1
79118;BME280;68523;51.336;-0.846;2023-08-06T10:18:01;100775.0;;;18.39;68.4
79118;BME280;68523;51.336;-0.846;2023-08-06T10:21:00;100775.0;;;18.38;66.0
79118;BME280;68523;51.336;-0.846;2023-08-06T10:24:00;100775.0;;;17.39;68.1
79118;BME280;68523;51.336;-0.846;2023-08-06T10:27:00;100775.0;;;16.99;69.1
79118;BME280;68523;51.336;-0.846;2023-08-06T10:33:01;100775.0;;;18.14;62.2
79118;BME280;68523;51.336;-0.846;2023-08-06T10:36:01;100765.0;;;17.82;66.1
79118;BME280;68523;51.336;-0.846;2023-08-06T10:39:00;100775.0;;;18.26;65.7
79118;BME280;68523;51.336;-0.846;2023-08-06T10:42:01;100785.0;;;17.08;68.1
79118;BME280;68523;51.336;-0.846;2023-08-06T10:45:11;100775.0;;;16.68;69.6
79118;BME280;68523;51.336;-0.846;2023-08-06T10:48:00;100775.0;;;18.64;64.8
79118;BME280;68523;51.336;-0.846;2023-08-06T10:51:00;100775.0;;;18.84;63.8
79118;BME280;68523;51.336;-0.846;2023-08-06T10:54:00;100765.0;;;19.16;61.5
79118;BME280;68523;51.336;-0.846;2023-08-06T10:57:00;100765.0;;;18.77;61.7
79118;BME280;68523;51.336;-0.846;2023-08-06T11:00:00;100775.0;;;18.07;62.9
79118;BME280;68523;51.336;-0.846;2023-08-06T11:03:00;100765.0;;;18.16;64.7
79118;BME280;68523;51.336;-0.846;2023-08-06T11:06:00;100765.0;;;18.87;64.4
79118;BME280;68523;51.336;-0.846;2023-08-06T11:09:01;100765.0;;;18.83;60.7
79118;BME280;68523;51.336;-0.846;2023-08-06T11:12:00;100755.0;;;18.87;62.8
79118;BME280;68523;51.336;-0.846;2023-08-06T11:15:01;100755.0;;;19.74;58.7
79118;BME280;68523;51.336;-0.846;2023-08-06T11:18:00;100755.0;;;18.97;60.9
79118;BME280;68523;51.336;-0.846;2023-08-06T11:21:00;100765.0;;;19.22;59.7
79118;BME280;68523;51.336;-0.846;2023-08-06T11:24:00;100755.0;;;18.75;61.1
79118;BME280;68523;51.336;-0.846;2023-08-06T11:27:00;100765.0;;;18.82;61.1
79118;BME280;68523;51.336;-0.846;2023-08-06T11:30:00;100765.0;;;19.49;59.4
79118;BME280;68523;51.336;-0.846;2023-08-06T11:33:00;100765.0;;;18.81;60.3
79118;BME280;68523;51.336;-0.846;2023-08-06T11:36:01;100765.0;;;18.43;61.5
79118;BME280;68523;51.336;-0.846;2023-08-06T11:39:00;100765.0;;;18.50;62.1
79118;BME280;68523;51.336;-0.846;2023-08-06T11:42:02;100765.0;;;18.12;62.8
79118;BME280;68523;51.336;-0.846;2023-08-06T11:45:02;100765.0;;;17.94;62.3
79118;BME280;68523;51.336;-0.846;2023-08-06T11:48:00;100765.0;;;17.69;63.6
79118;BME280;68523;51.336;-0.846;2023-08-06T11:51:00;100765.0;;;18.61;62.0
79118;BME280;68523;51.336;-0.846;2023-08-06T11:54:00;100765.0;;;20.17;58.7
79118;BME280;68523;51.336;-0.846;2023-08-06T11:57:00;100755.0;;;19.76;60.0
79118;BME280;68523;51.336;-0.846;2023-08-06T12:00:02;100765.0;;;19.25;60.4
79118;BME280;68523;51.336;-0.846;2023-08-06T12:03:00;100765.0;;;20.30;58.7
79118;BME280;68523;51.336;-0.846;2023-08-06T12:06:00;100755.0;;;20.71;56.7
79118;BME280;68523;51.336;-0.846;2023-08-06T12:09:00;100765.0;;;20.44;57.6
79118;BME280;68523;51.336;-0.846;2023-08-06T12:12:00;100755.0;;;19.14;58.0
79118;BME280;68523;51.336;-0.846;2023-08-06T12:15:00;100755.0;;;20.24;57.7
79118;BME280;68523;51.336;-0.846;2023-08-06T12:18:00;100755.0;;;20.90;56.7
79118;BME280;68523;51.336;-0.846;2023-08-06T12:21:00;100755.0;;;20.51;56.9
79118;BME280;68523;51.336;-0.846;2023-08-06T12:24:00;100755.0;;;20.08;56.7
79118;BME280;68523;51.336;-0.846;2023-08-06T12:27:00;100755.0;;;19.40;58.9
79118;BME280;68523;51.336;-0.846;2023-08-06T12:30:00;100755.0;;;19.12;59.1
79118;BME280;68523;51.336;-0.846;2023-08-06T12:33:00;100755.0;;;20.52;55.3
79118;BME280;68523;51.336;-0.846;2023-08-06T12:36:00;100755.0;;;21.03;53.6
79118;BME280;68523;51.336;-0.846;2023-08-06T12:39:00;100755.0;;;20.12;55.0
79118;BME280;68523;51.336;-0.846;2023-08-06T12:42:01;100755.0;;;19.87;55.8
79118;BME280;68523;51.336;-0.846;2023-08-06T12:45:00;100755.0;;;20.86;55.2
79118;BME280;68523;51.336;-0.846;2023-08-06T12:48:00;100755.0;;;20.83;52.9
79118;BME280;68523;51.336;-0.846;2023-08-06T12:51:00;100755.0;;;20.93;52.8
79118;BME280;68523;51.336;-0.846;2023-08-06T12:54:00;100755.0;;;20.46;55.3
79118;BME280;68523;51.336;-0.846;2023-08-06T12:57:00;100745.0;;;21.77;50.8
79118;BME280;68523;51.336;-0.846;2023-08-06T13:00:00;100745.0;;;20.58;53.1
79118;BME280;68523;51.336;-0.846;2023-08-06T13:03:00;100745.0;;;20.53;51.3
79118;BME280;68523;51.336;-0.846;2023-08-06T13:06:00;100755.0;;;19.79;53.7
79118;BME280;68523;51.336;-0.846;2023-08-06T13:09:00;100755.0;;;19.53;53.8
79118;BME280;68523;51.336;-0.846;2023-08-06T13:12:00;100755.0;;;19.87;54.1
79118;BME280;68523;51.336;-0.846;2023-08-06T13:15:00;100745.0;;;19.44;53.9
79118;BME280;68523;51.336;-0.846;2023-08-06T13:18:00;100745.0;;;20.08;53.4
79118;BME280;68523;51.336;-0.846;2023-08-06T13:21:00;100745.0;;;21.38;51.9
79118;BME280;68523;51.336;-0.846;2023-08-06T13:24:01;100735.0;;;21.85;48.8
79118;BME280;68523;51.336;-0.846;2023-08-06T13:27:00;100745.0;;;20.86;51.9
79118;BME280;68523;51.336;-0.846;2023-08-06T13:30:00;100745.0;;;21.44;48.3
79118;BME280;68523;51.336;-0.846;2023-08-06T13:33:00;100745.0;;;21.56;46.8
79118;BME280;68523;51.336;-0.846;2023-08-06T13:36:00;100745.0;;;22.01;45.2
79118;BME280;68523;51.336;-0.846;2023-08-06T13:39:00;100735.0;;;22.62;45.5
79118;BME280;68523;51.336;-0.846;2023-08-06T13:42:00;100745.0;;;22.40;49.4
79118;BME280;68523;51.336;-0.846;2023-08-06T13:45:00;100755.0;;;20.98;50.6
79118;BME280;68523;51.336;-0.846;2023-08-06T13:48:00;100765.0;;;20.51;57.9
79118;BME280;68523;51.336;-0.846;2023-08-06T13:51:00;100765.0;;;18.63;65.1
79118;BME280;68523;51.336;-0.846;2023-08-06T13:54:00;100765.0;;;17.99;67.3
79118;BME280;68523;51.336;-0.846;2023-08-06T13:57:00;100775.0;;;17.68;67.8
79118;BME280;68523;51.336;-0.846;2023-08-06T14:00:00;100785.0;;;17.27;70.3
79118;BME280;68523;51.336;-0.846;2023-08-06T14:03:00;100785.0;;;17.27;71.1
79118;BME280;68523;51.336;-0.846;2023-08-06T14:06:00;100795.0;;;18.31;67.6
79118;BME280;68523;51.336;-0.846;2023-08-06T14:09:01;100805.0;;;17.41;70.0
79118;BME280;68523;51.336;-0.846;2023-08-06T14:12:00;100805.0;;;17.04;69.2
79118;BME280;68523;51.336;-0.846;2023-08-06T14:15:00;100815.0;;;16.80;69.1
79118;BME280;68523;51.336;-0.846;2023-08-06T14:18:00;100815.0;;;16.75;70.1
79118;BME280;68523;51.336;-0.846;2023-08-06T14:21:00;100815.0;;;16.93;69.6
79118;BME280;68523;51.336;-0.846;2023-08-06T14:24:00;100815.0;;;16.80;71.4
79118;BME280;68523;51.336;-0.846;2023-08-06T14:27:00;100805.0;;;16.84;71.2
79118;BME280;68523;51.336;-0.846;2023-08-06T14:30:00;100805.0;;;16.90;71.7
79118;BME280;68523;51.336;-0.846;2023-08-06T14:33:00;100805.0;;;17.17;71.4
79118;BME280;68523;51.336;-0.846;2023-08-06T14:36:00;100805.0;;;17.38;70.0
79118;BME280;68523;51.336;-0.846;2023-08-06T14:39:00;100805.0;;;18.77;65.9
79118;BME280;68523;51.336;-0.846;2023-08-06T14:42:00;100805.0;;;19.74;61.8
79118;BME280;68523;51.336;-0.846;2023-08-06T14:45:00;100805.0;;;19.99;61.5
79118;BME280;68523;51.336;-0.846;2023-08-06T14:48:00;100815.0;;;20.27;59.8
79118;BME280;68523;51.336;-0.846;2023-08-06T14:51:00;100815.0;;;18.84;63.0
79118;BME280;68523;51.336;-0.846;2023-08-06T14:54:00;100805.0;;;18.82;63.6
79118;BME280;68523;51.336;-0.846;2023-08-06T14:57:00;100805.0;;;20.07;61.0
79118;BME280;68523;51.336;-0.846;2023-08-06T15:00:00;100805.0;;;22.53;54.2
79118;BME280;68523;51.336;-0.846;2023-08-06T15:03:00;100805.0;;;22.16;54.1
79118;BME280;68523;51.336;-0.846;2023-08-06T15:06:00;100805.0;;;20.61;54.2
79118;BME280;68523;51.336;-0.846;2023-08-06T15:09:00;100805.0;;;19.95;57.6
79118;BME280;68523;51.336;-0.846;2023-08-06T15:12:00;100815.0;;;19.65;58.5
79118;BME280;68523;51.336;-0.846;2023-08-06T15:15:00;100815.0;;;20.16;59.1
79118;BME280;68523;51.336;-0.846;2023-08-06T15:18:00;100815.0;;;19.79;58.9
79118;BME280;68523;51.336;-0.846;2023-08-06T15:21:00;100815.0;;;19.09;60.4
79118;BME280;68523;51.336;-0.846;2023-08-06T15:24:00;100815.0;;;18.72;63.1
79118;BME280;68523;51.336;-0.846;2023-08-06T15:27:00;100825.0;;;18.62;61.7
79118;BME280;68523;51.336;-0.846;2023-08-06T15:30:00;100825.0;;;18.52;61.8
79118;BME280;68523;51.336;-0.846;2023-08-06T15:33:01;100825.0;;;18.87;62.3
79118;BME280;68523;51.336;-0.846;2023-08-06T15:36:00;100825.0;;;19.77;58.9
79118;BME280;68523;51.336;-0.846;2023-08-06T15:39:00;100815.0;;;18.82;63.3
79118;BME280;68523;51.336;-0.846;2023-08-06T15:42:00;100815.0;;;18.62;63.4
79118;BME280;68523;51.336;-0.846;2023-08-06T15:45:00;100815.0;;;18.53;63.9
79118;BME280;68523;51.336;-0.846;2023-08-06T15:48:00;100825.0;;;18.26;63.7
79118;BME280;68523;51.336;-0.846;2023-08-06T15:51:00;100825.0;;;18.34;63.7
79118;BME280;68523;51.336;-0.846;2023-08-06T15:54:00;100835.0;;;18.37;63.2